createdAt,value
2022-07-30T00:00:27.713Z,18.48
2022-07-30T00:02:55.730Z,18.36
2022-07-30T00:05:25.113Z,18.36
2022-07-30T00:07:53.109Z,18.30
2022-07-30T00:10:23.092Z,18.11
2022-07-30T00:12:51.265Z,18.06
2022-07-30T00:15:19.324Z,18.04
2022-07-30T00:17:49.141Z,18.03
2022-07-30T00:20:18.479Z,17.93
2022-07-30T00:22:48.480Z,17.89
2022-07-30T00:25:16.534Z,17.97
2022-07-30T00:27:45.769Z,17.89
2022-07-30T00:30:14.710Z,17.88
2022-07-30T00:32:43.109Z,17.83
2022-07-30T00:35:11.852Z,17.85
2022-07-30T00:37:40.219Z,17.92
2022-07-30T00:40:10.845Z,17.88
2022-07-30T00:42:40.743Z,17.87
2022-07-30T00:45:10.467Z,18.13
2022-07-30T00:47:39.702Z,18.36
2022-07-30T00:50:10.088Z,18.51
2022-07-30T00:52:39.737Z,18.64
2022-07-30T00:55:12.112Z,18.67
2022-07-30T00:57:40.852Z,18.71
2022-07-30T01:00:12.298Z,18.68
2022-07-30T01:02:40.417Z,18.56
2022-07-30T01:05:09.466Z,18.71
2022-07-30T01:07:37.811Z,18.63
2022-07-30T01:10:06.791Z,18.65
2022-07-30T01:12:36.774Z,18.56
2022-07-30T01:15:07.702Z,18.57
2022-07-30T01:17:36.593Z,18.71
2022-07-30T01:20:08.186Z,18.73
2022-07-30T01:22:49.520Z,18.61
2022-07-30T01:25:26.167Z,18.66
2022-07-30T01:28:00.043Z,18.66
2022-07-30T01:30:30.124Z,18.75
2022-07-30T01:33:00.406Z,18.70
2022-07-30T01:35:31.893Z,18.59
2022-07-30T01:38:03.288Z,18.55
2022-07-30T01:40:33.124Z,18.45
2022-07-30T01:43:04.318Z,18.55
2022-07-30T01:45:41.352Z,18.44
2022-07-30T01:48:12.734Z,18.54
2022-07-30T01:50:45.205Z,18.45
2022-07-30T01:53:16.822Z,18.69
2022-07-30T01:55:45.822Z,18.86
2022-07-30T01:58:17.886Z,18.82
2022-07-30T02:00:50.012Z,18.97
2022-07-30T02:03:18.650Z,18.70
2022-07-30T02:05:51.628Z,18.66
2022-07-30T02:08:29.122Z,18.82
2022-07-30T02:11:05.999Z,18.86
2022-07-30T02:13:40.714Z,18.69
2022-07-30T02:16:16.148Z,18.76
2022-07-30T02:18:58.495Z,18.76
2022-07-30T02:21:36.371Z,18.76
2022-07-30T02:24:09.768Z,18.71
2022-07-30T02:26:39.480Z,18.55
2022-07-30T02:29:11.646Z,18.47
2022-07-30T02:31:41.763Z,18.38
2022-07-30T02:34:12.253Z,18.33
2022-07-30T02:36:43.258Z,18.33
2022-07-30T02:39:14.784Z,18.42
2022-07-30T02:41:46.644Z,18.40
2022-07-30T02:44:21.458Z,18.58
2022-07-30T02:46:52.541Z,18.71
2022-07-30T02:49:23.186Z,18.72
2022-07-30T02:51:53.348Z,18.73
2022-07-30T02:54:24.692Z,18.86
2022-07-30T02:56:54.722Z,18.76
2022-07-30T02:59:26.639Z,18.66
2022-07-30T03:01:56.332Z,18.67
2022-07-30T03:04:25.331Z,18.76
2022-07-30T03:06:56.325Z,18.72
2022-07-30T03:09:24.436Z,18.81
2022-07-30T03:11:55.367Z,18.88
2022-07-30T03:14:24.811Z,19.00
2022-07-30T03:16:57.885Z,18.97
2022-07-30T03:19:31.037Z,18.91
2022-07-30T03:22:02.723Z,18.86
2022-07-30T03:24:32.521Z,18.88
2022-07-30T03:27:04.182Z,18.91
2022-07-30T03:29:34.417Z,18.91
2022-07-30T03:32:02.826Z,18.89
2022-07-30T03:34:33.362Z,19.03
2022-07-30T03:37:06.418Z,18.50
2022-07-30T03:39:36.120Z,18.60
2022-07-30T03:42:04.723Z,18.66
2022-07-30T03:44:35.221Z,18.86
2022-07-30T03:47:06.459Z,19.01
2022-07-30T03:49:34.903Z,19.02
2022-07-30T03:52:04.402Z,19.09
2022-07-30T03:54:34.280Z,19.23
2022-07-30T03:57:03.498Z,19.23
2022-07-30T03:59:34.288Z,19.17
2022-07-30T04:02:04.763Z,19.35
2022-07-30T04:04:35.331Z,19.17
2022-07-30T04:07:03.454Z,18.98
2022-07-30T04:09:31.609Z,18.95
2022-07-30T04:12:00.207Z,18.88
2022-07-30T04:14:28.530Z,19.13
2022-07-30T04:17:03.969Z,19.23
2022-07-30T04:19:37.066Z,19.13
2022-07-30T04:22:08.483Z,19.25
2022-07-30T04:24:38.414Z,19.10
2022-07-30T04:27:07.525Z,19.12
2022-07-30T04:29:36.006Z,19.21
2022-07-30T04:32:06.462Z,19.30
2022-07-30T04:34:34.846Z,19.07
2022-07-30T04:37:03.530Z,19.16
2022-07-30T04:39:31.802Z,19.26
2022-07-30T04:42:00.057Z,19.35
2022-07-30T04:44:27.924Z,19.35
2022-07-30T04:46:55.840Z,19.19
2022-07-30T04:49:25.280Z,18.85
2022-07-30T04:51:54.553Z,18.96
2022-07-30T04:54:23.832Z,18.80
2022-07-30T04:56:54.216Z,19.10
2022-07-30T04:59:24.709Z,19.32
2022-07-30T05:01:54.629Z,19.51
2022-07-30T05:04:26.561Z,19.54
2022-07-30T05:06:55.925Z,19.69
2022-07-30T05:09:25.005Z,19.66
2022-07-30T05:11:53.435Z,19.70
2022-07-30T05:14:21.937Z,19.69
2022-07-30T05:16:50.251Z,19.79
2022-07-30T05:19:19.158Z,20.14
2022-07-30T05:21:49.063Z,20.24
2022-07-30T05:24:16.973Z,20.31
2022-07-30T05:26:46.073Z,20.63
2022-07-30T05:29:18.041Z,20.50
2022-07-30T05:31:49.001Z,20.84
2022-07-30T05:34:17.067Z,20.74
2022-07-30T05:36:45.719Z,20.65
2022-07-30T05:39:16.410Z,20.22
2022-07-30T05:41:44.710Z,20.53
2022-07-30T05:44:12.767Z,20.07
2022-07-30T05:46:41.225Z,20.16
2022-07-30T05:49:09.528Z,19.83
2022-07-30T05:51:37.831Z,19.69
2022-07-30T05:54:06.353Z,19.84
2022-07-30T05:56:36.449Z,20.17
2022-07-30T05:59:04.888Z,20.09
2022-07-30T06:01:33.205Z,20.12
2022-07-30T06:04:01.144Z,19.19
2022-07-30T06:06:29.505Z,19.54
2022-07-30T06:08:57.418Z,20.23
2022-07-30T06:11:25.410Z,21.18
2022-07-30T06:13:54.696Z,21.52
2022-07-30T06:16:22.824Z,21.48
2022-07-30T06:18:51.149Z,22.45
2022-07-30T06:21:19.654Z,22.64
2022-07-30T06:23:50.092Z,22.63
2022-07-30T06:26:18.076Z,22.51
2022-07-30T06:28:46.006Z,22.41
2022-07-30T06:31:16.381Z,22.53
2022-07-30T06:33:44.520Z,22.43
2022-07-30T06:36:14.033Z,22.87
2022-07-30T06:38:42.464Z,22.80
2022-07-30T06:41:11.127Z,23.04
2022-07-30T06:43:39.098Z,23.12
2022-07-30T06:46:07.096Z,23.47
2022-07-30T06:48:37.482Z,23.36
2022-07-30T06:51:05.885Z,23.50
2022-07-30T06:53:35.861Z,23.77
2022-07-30T06:56:10.821Z,24.07
2022-07-30T06:58:39.228Z,24.28
2022-07-30T07:01:11.179Z,24.03
2022-07-30T07:03:41.159Z,23.75
2022-07-30T07:06:10.022Z,24.87
2022-07-30T07:08:40.775Z,25.22
2022-07-30T07:11:08.729Z,25.34
2022-07-30T07:13:37.658Z,24.47
2022-07-30T07:16:06.222Z,24.85
2022-07-30T07:18:34.555Z,24.24
2022-07-30T07:21:04.210Z,25.02
2022-07-30T07:23:39.819Z,25.11
2022-07-30T07:26:11.280Z,26.25
2022-07-30T07:28:40.106Z,24.47
2022-07-30T07:31:08.576Z,25.05
2022-07-30T07:33:36.956Z,25.75
2022-07-30T07:36:06.853Z,25.77
2022-07-30T07:38:35.450Z,26.58
2022-07-30T07:41:03.756Z,27.31
2022-07-30T07:43:31.647Z,26.17
2022-07-30T07:46:00.141Z,26.48
2022-07-30T07:48:28.160Z,30.15
2022-07-30T07:51:00.123Z,31.75
2022-07-30T07:53:30.094Z,33.79
2022-07-30T07:55:58.376Z,33.82
2022-07-30T07:58:26.829Z,34.45
2022-07-30T08:00:56.285Z,34.13
2022-07-30T08:03:24.771Z,31.86
2022-07-30T08:06:00.971Z,29.36
2022-07-30T08:08:36.882Z,27.70
2022-07-30T08:11:06.792Z,26.97
2022-07-30T08:13:48.498Z,26.28
2022-07-30T08:16:20.834Z,24.45
2022-07-30T08:18:48.865Z,25.17
2022-07-30T08:21:17.021Z,27.31
2022-07-30T08:23:46.438Z,28.81
2022-07-30T08:26:14.430Z,31.09
2022-07-30T08:28:45.702Z,33.90
2022-07-30T08:31:14.318Z,30.72
2022-07-30T08:33:42.275Z,31.42
2022-07-30T08:36:10.461Z,29.95
2022-07-30T08:38:39.694Z,30.59
2022-07-30T08:41:09.296Z,30.76
2022-07-30T08:43:39.003Z,31.36
2022-07-30T08:46:13.921Z,33.85
2022-07-30T08:48:43.843Z,32.73
2022-07-30T08:51:12.512Z,30.46
2022-07-30T08:53:41.847Z,27.74
2022-07-30T08:56:11.239Z,27.09
2022-07-30T08:58:40.267Z,26.55
2022-07-30T09:01:08.287Z,26.04
2022-07-30T09:03:44.002Z,29.74
2022-07-30T09:06:12.841Z,33.31
2022-07-30T09:08:41.111Z,33.28
2022-07-30T09:11:11.024Z,32.78
2022-07-30T09:13:41.754Z,31.40
2022-07-30T09:16:20.900Z,30.76
2022-07-30T09:18:49.513Z,30.65
2022-07-30T09:21:18.961Z,31.09
2022-07-30T09:24:01.560Z,31.39
2022-07-30T09:26:32.928Z,30.12
2022-07-30T09:29:16.988Z,29.12
2022-07-30T09:31:55.680Z,28.11
2022-07-30T09:34:29.071Z,27.91
2022-07-30T09:36:58.603Z,29.14
2022-07-30T09:39:31.341Z,33.38
2022-07-30T09:42:01.081Z,34.22
2022-07-30T09:44:31.893Z,37.30
2022-07-30T09:47:01.338Z,37.06
2022-07-30T09:49:30.484Z,38.30
2022-07-30T09:51:59.395Z,36.16
2022-07-30T09:54:50.699Z,39.36
2022-07-30T09:57:25.602Z,38.69
2022-07-30T09:59:57.336Z,37.74
2022-07-30T10:02:33.405Z,37.83
2022-07-30T10:05:14.385Z,39.40
2022-07-30T10:07:51.162Z,38.58
2022-07-30T10:10:25.311Z,35.78
2022-07-30T10:12:59.473Z,32.90
2022-07-30T10:15:32.792Z,32.30
2022-07-30T10:18:06.342Z,33.71
2022-07-30T10:20:35.243Z,34.28
2022-07-30T10:23:08.070Z,35.05
2022-07-30T10:25:49.346Z,35.30
2022-07-30T10:28:24.666Z,34.68
2022-07-30T10:30:54.316Z,31.32
2022-07-30T10:33:35.046Z,31.41
2022-07-30T10:36:05.292Z,30.18
2022-07-30T10:38:39.533Z,31.69
2022-07-30T10:41:22.354Z,34.10
2022-07-30T10:44:26.167Z,36.39
2022-07-30T10:47:07.247Z,40.15
2022-07-30T10:49:41.204Z,37.22
2022-07-30T10:52:12.126Z,35.62
2022-07-30T10:54:43.025Z,34.21
2022-07-30T10:57:15.161Z,34.96
2022-07-30T11:00:13.599Z,36.54
2022-07-30T11:03:16.814Z,34.15
2022-07-30T11:05:48.319Z,33.35
2022-07-30T11:08:42.497Z,32.24
2022-07-30T11:12:04.886Z,31.08
2022-07-30T11:15:06.444Z,32.21
2022-07-30T11:18:02.564Z,31.70
2022-07-30T11:20:31.796Z,32.06
2022-07-30T11:23:35.666Z,31.34
2022-07-30T11:26:04.354Z,30.88
2022-07-30T11:28:37.722Z,33.65
2022-07-30T11:31:54.963Z,33.98
2022-07-30T11:34:32.976Z,32.82
2022-07-30T11:37:18.133Z,33.18
2022-07-30T11:40:13.686Z,33.28
2022-07-30T11:42:43.682Z,32.93
2022-07-30T11:45:27.346Z,34.09
2022-07-30T11:47:58.300Z,33.29
2022-07-30T11:50:30.566Z,34.68
2022-07-30T11:52:59.929Z,33.66
2022-07-30T11:55:32.662Z,35.10
2022-07-30T11:58:02.997Z,34.30
2022-07-30T12:00:41.835Z,33.66
2022-07-30T12:03:15.146Z,31.97
2022-07-30T12:05:46.358Z,30.39
2022-07-30T12:08:33.295Z,27.70
2022-07-30T12:11:05.000Z,25.34
2022-07-30T12:13:43.611Z,23.45
2022-07-30T12:16:16.510Z,22.74
2022-07-30T12:18:45.800Z,22.23
2022-07-30T12:21:17.171Z,22.55
2022-07-30T12:23:56.621Z,22.86
2022-07-30T12:26:27.271Z,22.88
2022-07-30T12:28:56.751Z,22.42
2022-07-30T12:31:24.846Z,22.86
2022-07-30T12:33:52.814Z,23.07
2022-07-30T12:36:31.547Z,23.60
2022-07-30T12:39:00.425Z,23.66
2022-07-30T12:41:53.251Z,23.52
2022-07-30T12:44:40.761Z,23.84
2022-07-30T12:47:22.013Z,24.08
2022-07-30T12:49:52.256Z,24.17
2022-07-30T12:52:27.619Z,25.07
2022-07-30T12:55:01.977Z,24.57
2022-07-30T12:57:30.255Z,24.56
2022-07-30T13:00:07.287Z,24.95
2022-07-30T13:02:36.626Z,25.16
2022-07-30T13:05:11.702Z,25.10
2022-07-30T13:07:56.241Z,24.96
2022-07-30T13:10:30.052Z,24.89
2022-07-30T13:12:59.712Z,23.94
2022-07-30T13:15:27.699Z,23.52
2022-07-30T13:17:55.649Z,22.19
2022-07-30T13:20:23.759Z,21.49
2022-07-30T13:22:51.709Z,21.39
2022-07-30T13:25:21.081Z,21.10
2022-07-30T13:27:49.347Z,20.70
2022-07-30T13:30:17.245Z,21.11
2022-07-30T13:32:45.500Z,21.30
2022-07-30T13:35:13.399Z,21.41
2022-07-30T13:37:41.289Z,21.99
2022-07-30T13:40:10.408Z,22.38
2022-07-30T13:42:40.098Z,23.01
2022-07-30T13:45:08.959Z,22.99
2022-07-30T13:47:37.337Z,23.36
2022-07-30T13:50:05.925Z,23.21
2022-07-30T13:52:34.195Z,24.12
2022-07-30T13:55:03.009Z,23.83
2022-07-30T13:57:31.255Z,23.68
2022-07-30T14:00:00.666Z,24.14
2022-07-30T14:02:30.043Z,24.19
2022-07-30T14:04:59.631Z,24.98
2022-07-30T14:07:27.990Z,24.33
2022-07-30T14:12:56.988Z,23.88
2022-07-30T14:15:27.783Z,24.37
2022-07-30T14:17:56.904Z,24.26
2022-07-30T14:20:28.987Z,24.73
2022-07-30T14:22:57.726Z,25.00
2022-07-30T14:25:25.819Z,25.16
2022-07-30T14:27:53.920Z,24.85
2022-07-30T14:30:22.688Z,24.34
2022-07-30T14:32:58.317Z,24.48
2022-07-30T14:35:28.992Z,24.29
2022-07-30T14:37:56.966Z,24.06
2022-07-30T14:40:28.316Z,23.99
2022-07-30T14:42:56.426Z,24.13
2022-07-30T14:45:25.582Z,24.71
2022-07-30T14:47:55.188Z,24.25
2022-07-30T14:50:23.332Z,24.50
2022-07-30T14:52:52.552Z,24.92
2022-07-30T14:55:20.565Z,24.42
2022-07-30T14:57:49.622Z,24.17
2022-07-30T15:00:18.373Z,24.40
2022-07-30T15:02:46.502Z,23.86
2022-07-30T15:05:16.142Z,23.89
2022-07-30T15:07:44.105Z,23.60
2022-07-30T15:10:12.121Z,23.72
2022-07-30T15:12:40.617Z,24.39
2022-07-30T15:15:10.834Z,23.84
2022-07-30T15:17:40.399Z,23.43
2022-07-30T15:20:11.219Z,23.51
2022-07-30T15:22:40.622Z,22.96
2022-07-30T15:25:09.801Z,23.53
2022-07-30T15:27:38.709Z,23.26
2022-07-30T15:30:08.482Z,22.97
2022-07-30T15:32:37.185Z,23.19
2022-07-30T15:35:09.450Z,23.09
2022-07-30T15:37:42.632Z,23.04
2022-07-30T15:40:11.765Z,22.41
2022-07-30T15:42:40.141Z,22.64
2022-07-30T15:45:18.002Z,22.55
2022-07-30T15:47:47.468Z,22.68
2022-07-30T15:50:16.692Z,22.58
2022-07-30T15:52:46.397Z,22.08
2022-07-30T15:55:14.894Z,22.10
2022-07-30T15:57:43.382Z,22.31
2022-07-30T16:00:13.097Z,22.42
2022-07-30T16:02:41.378Z,23.10
2022-07-30T16:05:14.008Z,23.35
2022-07-30T16:07:43.109Z,23.72
2022-07-30T16:10:12.657Z,23.04
2022-07-30T16:12:42.108Z,23.27
2022-07-30T16:15:11.842Z,23.02
2022-07-30T16:17:40.197Z,23.08
2022-07-30T16:20:10.154Z,22.52
2022-07-30T16:22:38.687Z,22.94
2022-07-30T16:25:07.342Z,22.95
2022-07-30T16:27:36.793Z,23.37
2022-07-30T16:30:05.720Z,22.81
2022-07-30T16:32:34.281Z,22.76
2022-07-30T16:35:02.434Z,22.52
2022-07-30T16:41:17.036Z,22.65
2022-07-30T16:43:46.345Z,22.96
2022-07-30T16:46:14.661Z,22.98
2022-07-30T16:48:46.923Z,22.63
2022-07-30T16:51:19.126Z,22.81
2022-07-30T16:53:48.610Z,22.69
2022-07-30T16:56:17.133Z,22.32
2022-07-30T16:58:46.460Z,22.92
2022-07-30T17:01:14.830Z,23.22
2022-07-30T17:03:43.059Z,23.02
2022-07-30T17:06:11.461Z,22.87
2022-07-30T17:08:39.410Z,23.14
2022-07-30T17:11:08.894Z,23.26
2022-07-30T17:13:48.241Z,23.22
2022-07-30T17:16:16.626Z,23.29
2022-07-30T17:18:44.549Z,23.42
2022-07-30T17:21:12.860Z,23.35
2022-07-30T17:23:40.847Z,23.49
2022-07-30T17:26:11.064Z,23.69
2022-07-30T17:28:39.244Z,23.20
2022-07-30T17:31:08.657Z,22.74
2022-07-30T17:33:36.624Z,23.00
2022-07-30T17:36:08.878Z,23.32
2022-07-30T17:38:36.962Z,23.02
2022-07-30T17:41:05.282Z,22.56
2022-07-30T17:43:33.246Z,22.79
2022-07-30T17:46:01.707Z,22.56
2022-07-30T17:48:31.060Z,22.63
2022-07-30T17:50:59.059Z,22.78
2022-07-30T17:53:29.926Z,22.83
2022-07-30T17:56:03.272Z,22.96
2022-07-30T17:58:31.765Z,22.12
2022-07-30T18:01:02.748Z,21.94
2022-07-30T18:03:32.651Z,21.84
2022-07-30T18:06:00.956Z,21.83
2022-07-30T18:08:32.449Z,21.88
2022-07-30T18:11:00.694Z,21.91
2022-07-30T18:13:28.798Z,22.11
2022-07-30T18:15:57.364Z,21.77
2022-07-30T18:18:25.602Z,21.44
2022-07-30T18:20:55.422Z,21.37
2022-07-30T18:23:23.369Z,21.38
2022-07-30T18:25:54.233Z,21.30
2022-07-30T18:28:23.018Z,21.16
2022-07-30T18:30:51.546Z,21.29
2022-07-30T18:33:19.726Z,21.19
2022-07-30T18:35:48.191Z,21.36
2022-07-30T18:38:17.703Z,21.26
2022-07-30T18:40:58.293Z,21.17
2022-07-30T18:43:27.110Z,21.28
2022-07-30T18:45:56.840Z,21.49
2022-07-30T18:48:25.599Z,21.31
2022-07-30T18:50:54.342Z,21.07
2022-07-30T18:53:24.593Z,21.03
2022-07-30T18:55:53.027Z,21.04
2022-07-30T18:58:21.083Z,20.84
2022-07-30T19:00:51.096Z,20.98
2022-07-30T19:03:22.969Z,20.91
2022-07-30T19:05:51.658Z,20.95
2022-07-30T19:08:19.622Z,21.14
2022-07-30T19:10:49.188Z,21.15
2022-07-30T19:13:17.641Z,21.20
2022-07-30T19:15:45.604Z,21.19
2022-07-30T19:18:14.150Z,21.19
2022-07-30T19:20:42.363Z,21.20
2022-07-30T19:23:10.802Z,21.03
2022-07-30T19:25:39.304Z,20.92
2022-07-30T19:28:08.670Z,21.10
2022-07-30T19:30:36.611Z,21.23
2022-07-30T19:33:06.991Z,20.87
2022-07-30T19:35:37.376Z,21.14
2022-07-30T19:38:06.406Z,21.07
2022-07-30T19:40:39.570Z,21.20
2022-07-30T19:46:58.262Z,20.92
2022-07-30T19:49:29.513Z,20.50
2022-07-30T19:52:10.119Z,20.39
2022-07-30T19:54:45.345Z,20.46
2022-07-30T19:57:13.151Z,20.47
2022-07-30T19:59:46.194Z,20.29
2022-07-30T20:02:35.341Z,20.15
2022-07-30T20:05:04.015Z,20.10
2022-07-30T20:07:34.045Z,20.07
2022-07-30T20:10:03.394Z,20.16
2022-07-30T20:12:31.558Z,20.01
2022-07-30T20:14:59.286Z,20.05
2022-07-30T20:17:28.971Z,20.03
2022-07-30T20:20:03.068Z,20.06
2022-07-30T20:22:34.476Z,19.92
2022-07-30T20:25:02.702Z,19.93
2022-07-30T20:27:37.318Z,20.16
2022-07-30T20:30:09.798Z,20.00
2022-07-30T20:32:46.290Z,19.92
2022-07-30T20:35:14.598Z,19.86
2022-07-30T20:37:55.372Z,19.93
2022-07-30T20:40:24.699Z,20.11
2022-07-30T20:42:55.073Z,20.11
2022-07-30T20:45:24.686Z,20.27
2022-07-30T20:47:56.893Z,20.20
2022-07-30T20:53:14.086Z,20.32
2022-07-30T20:55:43.129Z,20.28
2022-07-30T20:58:16.636Z,20.33
2022-07-30T21:00:49.985Z,20.41
2022-07-30T21:03:21.727Z,20.42
2022-07-30T21:05:51.175Z,20.40
2022-07-30T21:08:20.656Z,20.49
2022-07-30T21:10:48.523Z,20.58
2022-07-30T21:13:17.440Z,20.47
2022-07-30T21:16:01.784Z,20.51
2022-07-30T21:18:33.056Z,20.49
2022-07-30T21:21:01.331Z,20.39
2022-07-30T21:23:32.908Z,20.49
2022-07-30T21:26:05.808Z,20.50
2022-07-30T21:28:36.306Z,20.45
2022-07-30T21:31:07.408Z,20.32
2022-07-30T21:33:37.404Z,20.21
2022-07-30T21:36:10.847Z,20.08
2022-07-30T21:41:41.145Z,19.89
2022-07-30T21:44:10.198Z,19.96
2022-07-30T21:46:40.468Z,19.85
2022-07-30T21:49:10.965Z,19.84
2022-07-30T21:51:39.111Z,19.80
2022-07-30T21:54:08.351Z,19.73
2022-07-30T21:56:41.525Z,19.70
2022-07-30T21:59:10.133Z,19.69
2022-07-30T22:01:39.313Z,19.67
2022-07-30T22:04:17.144Z,19.59
2022-07-30T22:06:45.053Z,19.45
2022-07-30T22:09:19.591Z,19.40
2022-07-30T22:12:06.700Z,19.19
2022-07-30T22:14:38.746Z,19.12
2022-07-30T22:17:14.728Z,19.03
2022-07-30T22:19:54.732Z,18.93
2022-07-30T22:22:27.303Z,18.97
2022-07-30T22:24:57.373Z,18.97
2022-07-30T22:27:26.192Z,18.93
2022-07-30T22:29:55.538Z,18.88
2022-07-30T22:32:23.732Z,18.84
2022-07-30T22:34:53.402Z,18.65
2022-07-30T22:37:21.853Z,18.58
2022-07-30T22:39:50.942Z,18.49
2022-07-30T22:42:20.911Z,18.52
2022-07-30T22:44:53.280Z,18.44
2022-07-30T22:47:50.378Z,18.32
2022-07-30T22:50:12.216Z,18.26
2022-07-30T22:52:49.052Z,18.20
2022-07-30T22:55:25.216Z,18.21
2022-07-30T22:57:52.980Z,18.10
2022-07-30T23:00:27.010Z,18.05
2022-07-30T23:02:56.720Z,18.03
2022-07-30T23:05:26.088Z,18.03
2022-07-30T23:07:54.476Z,18.11
2022-07-30T23:10:24.840Z,18.09
2022-07-30T23:12:19.397Z,20.33
2022-07-30T23:12:55.745Z,18.21
2022-07-30T23:15:23.857Z,18.20
2022-07-30T23:17:51.617Z,17.99
2022-07-30T23:20:21.268Z,17.88
2022-07-30T23:22:50.712Z,17.74
2022-07-30T23:25:19.102Z,18.05
2022-07-30T23:27:47.778Z,17.84
2022-07-30T23:30:15.829Z,17.64
2022-07-30T23:32:43.860Z,17.62
2022-07-30T23:35:12.046Z,17.50
2022-07-30T23:37:48.230Z,17.58
2022-07-30T23:40:19.347Z,17.58
2022-07-30T23:42:47.661Z,17.56
2022-07-30T23:45:15.383Z,17.47
2022-07-30T23:48:00.738Z,17.26
2022-07-30T23:50:30.230Z,17.15
2022-07-30T23:52:58.049Z,17.13
2022-07-30T23:55:27.933Z,17.13
2022-07-30T23:57:56.322Z,17.12
